sensor_id;sensor_type;location;lat;lon;timestamp;P1;durP1;ratioP1;P2;durP2;ratioP2
5125;SDS011;63008;53.112;8.896;2023-06-26T00:01:38;8.57;;;7.87;;
5125;SDS011;63008;53.112;8.896;2023-06-26T00:03:40;8.90;;;8.03;;
5125;SDS011;63008;53.112;8.896;2023-06-26T00:05:41;10.90;;;8.00;;
5125;SDS011;63008;53.112;8.896;2023-06-26T00:07:43;9.57;;;8.67;;
5125;SDS011;63008;53.112;8.896;2023-06-26T00:09:44;10.37;;;8.63;;
5125;SDS011;63008;53.112;8.896;2023-06-26T00:11:45;8.70;;;8.00;;
5125;SDS011;63008;53.112;8.896;2023-06-26T00:13:45;9.20;;;8.40;;
5125;SDS011;63008;53.112;8.896;2023-06-26T00:15:47;9.70;;;8.80;;
5125;SDS011;63008;53.112;8.896;2023-06-26T00:17:48;12.23;;;8.03;;
5125;SDS011;63008;53.112;8.896;2023-06-26T00:19:49;10.47;;;9.40;;
5125;SDS011;63008;53.112;8.896;2023-06-26T00:21:51;9.57;;;8.67;;
5125;SDS011;63008;53.112;8.896;2023-06-26T00:23:52;9.53;;;8.63;;
5125;SDS011;63008;53.112;8.896;2023-06-26T00:25:53;9.73;;;8.83;;
5125;SDS011;63008;53.112;8.896;2023-06-26T00:27:54;10.63;;;8.47;;
5125;SDS011;63008;53.112;8.896;2023-06-26T00:29:55;9.70;;;8.80;;
5125;SDS011;63008;53.112;8.896;2023-06-26T00:31:56;9.87;;;8.87;;
5125;SDS011;63008;53.112;8.896;2023-06-26T00:33:57;9.90;;;8.90;;
5125;SDS011;63008;53.112;8.896;2023-06-26T00:35:59;10.13;;;8.50;;
5125;SDS011;63008;53.112;8.896;2023-06-26T00:38:00;10.70;;;9.07;;
5125;SDS011;63008;53.112;8.896;2023-06-26T00:40:01;9.27;;;8.30;;
5125;SDS011;63008;53.112;8.896;2023-06-26T00:42:02;9.40;;;8.50;;
5125;SDS011;63008;53.112;8.896;2023-06-26T00:44:03;9.20;;;8.40;;
5125;SDS011;63008;53.112;8.896;2023-06-26T00:46:06;9.60;;;8.60;;
5125;SDS011;63008;53.112;8.896;2023-06-26T00:48:10;9.60;;;8.70;;
5125;SDS011;63008;53.112;8.896;2023-06-26T00:50:14;10.17;;;9.17;;
5125;SDS011;63008;53.112;8.896;2023-06-26T00:52:18;9.40;;;8.60;;
5125;SDS011;63008;53.112;8.896;2023-06-26T00:54:19;10.43;;;9.47;;
5125;SDS011;63008;53.112;8.896;2023-06-26T00:56:22;9.27;;;8.47;;
5125;SDS011;63008;53.112;8.896;2023-06-26T00:58:24;10.37;;;9.47;;
5125;SDS011;63008;53.112;8.896;2023-06-26T01:00:26;9.63;;;8.73;;
5125;SDS011;63008;53.112;8.896;2023-06-26T01:02:27;11.83;;;9.10;;
5125;SDS011;63008;53.112;8.896;2023-06-26T01:04:33;10.87;;;9.80;;
5125;SDS011;63008;53.112;8.896;2023-06-26T01:06:34;12.30;;;10.13;;
5125;SDS011;63008;53.112;8.896;2023-06-26T01:08:36;10.47;;;9.57;;
5125;SDS011;63008;53.112;8.896;2023-06-26T01:10:37;9.70;;;8.43;;
5125;SDS011;63008;53.112;8.896;2023-06-26T01:12:38;10.10;;;9.17;;
5125;SDS011;63008;53.112;8.896;2023-06-26T01:14:40;9.40;;;8.50;;
5125;SDS011;63008;53.112;8.896;2023-06-26T01:16:41;13.70;;;10.17;;
5125;SDS011;63008;53.112;8.896;2023-06-26T01:18:47;9.67;;;8.77;;
5125;SDS011;63008;53.112;8.896;2023-06-26T01:20:49;10.00;;;9.00;;
5125;SDS011;63008;53.112;8.896;2023-06-26T01:23:03;10.87;;;9.77;;
5125;SDS011;63008;53.112;8.896;2023-06-26T01:25:29;10.13;;;9.10;;
5125;SDS011;63008;53.112;8.896;2023-06-26T01:27:39;9.53;;;8.57;;
5125;SDS011;63008;53.112;8.896;2023-06-26T01:29:41;10.30;;;9.30;;
5125;SDS011;63008;53.112;8.896;2023-06-26T01:31:44;10.17;;;9.27;;
5125;SDS011;63008;53.112;8.896;2023-06-26T01:33:48;10.17;;;9.27;;
5125;SDS011;63008;53.112;8.896;2023-06-26T01:35:50;15.03;;;10.03;;
5125;SDS011;63008;53.112;8.896;2023-06-26T01:37:51;13.07;;;9.90;;
5125;SDS011;63008;53.112;8.896;2023-06-26T01:39:52;9.37;;;8.57;;
5125;SDS011;63008;53.112;8.896;2023-06-26T01:41:53;9.70;;;8.73;;
5125;SDS011;63008;53.112;8.896;2023-06-26T01:46:16;11.10;;;10.10;;
5125;SDS011;63008;53.112;8.896;2023-06-26T01:48:23;11.03;;;10.03;;
5125;SDS011;63008;53.112;8.896;2023-06-26T01:50:28;10.77;;;9.77;;
5125;SDS011;63008;53.112;8.896;2023-06-26T01:52:35;10.40;;;9.60;;
5125;SDS011;63008;53.112;8.896;2023-06-26T01:54:47;9.80;;;8.73;;
5125;SDS011;63008;53.112;8.896;2023-06-26T01:56:53;10.73;;;9.83;;
5125;SDS011;63008;53.112;8.896;2023-06-26T01:58:55;11.40;;;10.27;;
5125;SDS011;63008;53.112;8.896;2023-06-26T02:00:57;10.67;;;9.67;;
5125;SDS011;63008;53.112;8.896;2023-06-26T02:02:58;10.70;;;9.80;;
5125;SDS011;63008;53.112;8.896;2023-06-26T02:04:59;10.77;;;9.67;;
5125;SDS011;63008;53.112;8.896;2023-06-26T02:07:00;10.43;;;9.53;;
5125;SDS011;63008;53.112;8.896;2023-06-26T02:09:01;10.70;;;9.60;;
5125;SDS011;63008;53.112;8.896;2023-06-26T02:11:02;11.23;;;10.13;;
5125;SDS011;63008;53.112;8.896;2023-06-26T02:13:04;14.80;;;10.77;;
5125;SDS011;63008;53.112;8.896;2023-06-26T02:15:05;10.47;;;9.57;;
5125;SDS011;63008;53.112;8.896;2023-06-26T02:17:06;11.37;;;10.17;;
5125;SDS011;63008;53.112;8.896;2023-06-26T02:19:09;11.10;;;10.10;;
5125;SDS011;63008;53.112;8.896;2023-06-26T02:21:10;12.07;;;10.00;;
5125;SDS011;63008;53.112;8.896;2023-06-26T02:23:11;11.90;;;10.33;;
5125;SDS011;63008;53.112;8.896;2023-06-26T02:25:13;10.60;;;9.60;;
5125;SDS011;63008;53.112;8.896;2023-06-26T02:27:14;10.67;;;9.80;;
5125;SDS011;63008;53.112;8.896;2023-06-26T02:29:15;11.23;;;10.23;;
5125;SDS011;63008;53.112;8.896;2023-06-26T02:31:16;11.30;;;10.20;;
5125;SDS011;63008;53.112;8.896;2023-06-26T02:33:17;13.37;;;10.53;;
5125;SDS011;63008;53.112;8.896;2023-06-26T02:35:18;11.77;;;10.57;;
5125;SDS011;63008;53.112;8.896;2023-06-26T02:37:19;13.27;;;10.87;;
5125;SDS011;63008;53.112;8.896;2023-06-26T02:39:20;11.57;;;10.50;;
5125;SDS011;63008;53.112;8.896;2023-06-26T02:41:21;11.50;;;10.50;;
5125;SDS011;63008;53.112;8.896;2023-06-26T02:43:22;10.67;;;9.37;;
5125;SDS011;63008;53.112;8.896;2023-06-26T02:45:23;10.27;;;9.43;;
5125;SDS011;63008;53.112;8.896;2023-06-26T02:47:24;10.73;;;9.70;;
5125;SDS011;63008;53.112;8.896;2023-06-26T02:49:25;11.37;;;10.10;;
5125;SDS011;63008;53.112;8.896;2023-06-26T02:51:26;11.27;;;9.80;;
5125;SDS011;63008;53.112;8.896;2023-06-26T02:53:27;11.53;;;10.53;;
5125;SDS011;63008;53.112;8.896;2023-06-26T02:55:28;9.97;;;9.07;;
5125;SDS011;63008;53.112;8.896;2023-06-26T02:57:29;11.13;;;10.13;;
5125;SDS011;63008;53.112;8.896;2023-06-26T02:59:30;11.13;;;10.13;;
5125;SDS011;63008;53.112;8.896;2023-06-26T03:01:31;12.53;;;10.90;;
5125;SDS011;63008;53.112;8.896;2023-06-26T03:03:32;11.70;;;10.60;;
5125;SDS011;63008;53.112;8.896;2023-06-26T03:05:40;17.43;;;9.90;;
5125;SDS011;63008;53.112;8.896;2023-06-26T03:07:41;11.00;;;9.17;;
5125;SDS011;63008;53.112;8.896;2023-06-26T03:09:42;11.10;;;10.00;;
5125;SDS011;63008;53.112;8.896;2023-06-26T03:11:43;11.70;;;9.80;;
5125;SDS011;63008;53.112;8.896;2023-06-26T03:13:44;10.70;;;9.70;;
5125;SDS011;63008;53.112;8.896;2023-06-26T03:15:45;10.63;;;9.73;;
5125;SDS011;63008;53.112;8.896;2023-06-26T03:17:46;10.77;;;9.70;;
5125;SDS011;63008;53.112;8.896;2023-06-26T03:19:47;10.30;;;9.50;;
5125;SDS011;63008;53.112;8.896;2023-06-26T03:21:48;11.27;;;10.27;;
5125;SDS011;63008;53.112;8.896;2023-06-26T03:23:49;11.00;;;10.00;;
5125;SDS011;63008;53.112;8.896;2023-06-26T03:25:50;10.50;;;9.67;;
5125;SDS011;63008;53.112;8.896;2023-06-26T03:27:51;10.53;;;9.30;;
5125;SDS011;63008;53.112;8.896;2023-06-26T03:29:52;11.00;;;10.00;;
5125;SDS011;63008;53.112;8.896;2023-06-26T03:31:53;11.67;;;10.63;;
5125;SDS011;63008;53.112;8.896;2023-06-26T03:33:54;16.10;;;9.40;;
5125;SDS011;63008;53.112;8.896;2023-06-26T03:35:55;10.23;;;9.30;;
5125;SDS011;63008;53.112;8.896;2023-06-26T03:37:57;20.70;;;10.47;;
5125;SDS011;63008;53.112;8.896;2023-06-26T03:39:58;11.37;;;9.83;;
5125;SDS011;63008;53.112;8.896;2023-06-26T03:41:59;10.67;;;9.70;;
5125;SDS011;63008;53.112;8.896;2023-06-26T03:44:01;11.80;;;9.30;;
5125;SDS011;63008;53.112;8.896;2023-06-26T03:46:02;11.10;;;10.10;;
5125;SDS011;63008;53.112;8.896;2023-06-26T03:48:03;12.90;;;9.63;;
5125;SDS011;63008;53.112;8.896;2023-06-26T03:50:04;14.10;;;9.70;;
5125;SDS011;63008;53.112;8.896;2023-06-26T03:52:06;9.50;;;8.60;;
5125;SDS011;63008;53.112;8.896;2023-06-26T03:54:07;12.23;;;8.73;;
5125;SDS011;63008;53.112;8.896;2023-06-26T03:56:08;11.43;;;8.93;;
5125;SDS011;63008;53.112;8.896;2023-06-26T03:58:09;9.97;;;8.93;;
5125;SDS011;63008;53.112;8.896;2023-06-26T04:00:10;9.73;;;8.73;;
5125;SDS011;63008;53.112;8.896;2023-06-26T04:02:13;9.50;;;8.57;;
5125;SDS011;63008;53.112;8.896;2023-06-26T04:04:14;11.60;;;8.80;;
5125;SDS011;63008;53.112;8.896;2023-06-26T04:06:15;11.37;;;9.40;;
5125;SDS011;63008;53.112;8.896;2023-06-26T04:08:16;9.77;;;8.97;;
5125;SDS011;63008;53.112;8.896;2023-06-26T04:10:20;9.57;;;8.73;;
5125;SDS011;63008;53.112;8.896;2023-06-26T04:12:21;10.63;;;8.37;;
5125;SDS011;63008;53.112;8.896;2023-06-26T04:14:22;9.13;;;8.33;;
5125;SDS011;63008;53.112;8.896;2023-06-26T04:16:23;10.83;;;8.27;;
5125;SDS011;63008;53.112;8.896;2023-06-26T04:18:25;10.47;;;9.47;;
5125;SDS011;63008;53.112;8.896;2023-06-26T04:20:26;10.20;;;9.40;;
5125;SDS011;63008;53.112;8.896;2023-06-26T04:22:27;9.90;;;9.00;;
5125;SDS011;63008;53.112;8.896;2023-06-26T04:24:28;14.23;;;8.67;;
5125;SDS011;63008;53.112;8.896;2023-06-26T04:26:29;8.47;;;7.63;;
5125;SDS011;63008;53.112;8.896;2023-06-26T04:28:31;9.00;;;8.10;;
5125;SDS011;63008;53.112;8.896;2023-06-26T04:30:33;9.10;;;8.20;;
5125;SDS011;63008;53.112;8.896;2023-06-26T04:32:34;9.57;;;8.67;;
5125;SDS011;63008;53.112;8.896;2023-06-26T04:34:35;8.73;;;8.03;;
5125;SDS011;63008;53.112;8.896;2023-06-26T04:36:36;14.60;;;8.43;;
5125;SDS011;63008;53.112;8.896;2023-06-26T04:38:39;11.97;;;7.87;;
5125;SDS011;63008;53.112;8.896;2023-06-26T04:40:40;8.53;;;7.83;;
5125;SDS011;63008;53.112;8.896;2023-06-26T04:42:41;10.73;;;8.37;;
5125;SDS011;63008;53.112;8.896;2023-06-26T04:44:42;7.33;;;6.73;;
5125;SDS011;63008;53.112;8.896;2023-06-26T04:46:43;9.53;;;8.57;;
5125;SDS011;63008;53.112;8.896;2023-06-26T04:48:45;8.87;;;7.87;;
5125;SDS011;63008;53.112;8.896;2023-06-26T04:50:46;9.03;;;8.23;;
5125;SDS011;63008;53.112;8.896;2023-06-26T04:52:54;9.00;;;8.10;;
5125;SDS011;63008;53.112;8.896;2023-06-26T04:54:56;10.23;;;7.87;;
5125;SDS011;63008;53.112;8.896;2023-06-26T04:56:57;8.77;;;7.93;;
5125;SDS011;63008;53.112;8.896;2023-06-26T04:58:58;8.60;;;7.70;;
5125;SDS011;63008;53.112;8.896;2023-06-26T05:00:59;8.50;;;7.60;;
5125;SDS011;63008;53.112;8.896;2023-06-26T05:03:00;8.80;;;7.90;;
5125;SDS011;63008;53.112;8.896;2023-06-26T05:05:04;9.43;;;8.23;;
5125;SDS011;63008;53.112;8.896;2023-06-26T05:07:05;8.60;;;7.80;;
5125;SDS011;63008;53.112;8.896;2023-06-26T05:09:06;7.63;;;7.00;;
5125;SDS011;63008;53.112;8.896;2023-06-26T05:11:07;8.87;;;7.93;;
5125;SDS011;63008;53.112;8.896;2023-06-26T05:13:08;9.30;;;8.33;;
5125;SDS011;63008;53.112;8.896;2023-06-26T05:15:09;9.00;;;8.10;;
5125;SDS011;63008;53.112;8.896;2023-06-26T05:17:11;9.77;;;7.67;;
5125;SDS011;63008;53.112;8.896;2023-06-26T05:19:11;9.23;;;7.43;;
5125;SDS011;63008;53.112;8.896;2023-06-26T05:21:12;8.80;;;8.03;;
5125;SDS011;63008;53.112;8.896;2023-06-26T05:23:14;9.60;;;7.90;;
5125;SDS011;63008;53.112;8.896;2023-06-26T05:25:17;8.57;;;7.77;;
5125;SDS011;63008;53.112;8.896;2023-06-26T05:27:21;10.90;;;8.30;;
5125;SDS011;63008;53.112;8.896;2023-06-26T05:29:22;10.87;;;7.80;;
5125;SDS011;63008;53.112;8.896;2023-06-26T05:31:23;10.23;;;7.80;;
5125;SDS011;63008;53.112;8.896;2023-06-26T05:33:25;8.77;;;7.63;;
5125;SDS011;63008;53.112;8.896;2023-06-26T05:35:28;9.80;;;7.87;;
5125;SDS011;63008;53.112;8.896;2023-06-26T05:37:30;8.17;;;7.40;;
5125;SDS011;63008;53.112;8.896;2023-06-26T05:39:32;7.50;;;6.80;;
5125;SDS011;63008;53.112;8.896;2023-06-26T05:41:33;8.00;;;7.30;;
5125;SDS011;63008;53.112;8.896;2023-06-26T05:43:34;10.33;;;7.53;;
5125;SDS011;63008;53.112;8.896;2023-06-26T05:45:35;10.10;;;7.33;;
5125;SDS011;63008;53.112;8.896;2023-06-26T05:47:36;7.87;;;7.17;;
5125;SDS011;63008;53.112;8.896;2023-06-26T05:49:37;10.00;;;7.70;;
5125;SDS011;63008;53.112;8.896;2023-06-26T05:51:38;8.30;;;7.60;;
5125;SDS011;63008;53.112;8.896;2023-06-26T05:53:39;9.10;;;7.73;;
5125;SDS011;63008;53.112;8.896;2023-06-26T05:55:40;8.63;;;7.80;;
5125;SDS011;63008;53.112;8.896;2023-06-26T05:57:43;7.97;;;6.90;;
5125;SDS011;63008;53.112;8.896;2023-06-26T05:59:46;7.93;;;7.20;;
5125;SDS011;63008;53.112;8.896;2023-06-26T06:01:47;8.03;;;7.43;;
5125;SDS011;63008;53.112;8.896;2023-06-26T06:03:48;8.87;;;6.77;;
5125;SDS011;63008;53.112;8.896;2023-06-26T06:05:49;9.33;;;7.77;;
5125;SDS011;63008;53.112;8.896;2023-06-26T06:07:50;11.07;;;7.30;;
5125;SDS011;63008;53.112;8.896;2023-06-26T06:09:51;8.20;;;7.50;;
5125;SDS011;63008;53.112;8.896;2023-06-26T06:11:52;9.80;;;7.40;;
5125;SDS011;63008;53.112;8.896;2023-06-26T06:13:53;10.43;;;8.47;;
5125;SDS011;63008;53.112;8.896;2023-06-26T06:15:54;8.90;;;7.10;;
5125;SDS011;63008;53.112;8.896;2023-06-26T06:17:56;8.13;;;7.07;;
5125;SDS011;63008;53.112;8.896;2023-06-26T06:19:57;7.60;;;6.83;;
5125;SDS011;63008;53.112;8.896;2023-06-26T06:21:58;7.17;;;6.37;;
5125;SDS011;63008;53.112;8.896;2023-06-26T06:24:01;12.63;;;7.70;;
5125;SDS011;63008;53.112;8.896;2023-06-26T06:26:02;7.73;;;6.87;;
5125;SDS011;63008;53.112;8.896;2023-06-26T06:28:04;7.40;;;6.80;;
5125;SDS011;63008;53.112;8.896;2023-06-26T06:30:05;11.10;;;7.67;;
5125;SDS011;63008;53.112;8.896;2023-06-26T06:32:07;7.27;;;6.60;;
5125;SDS011;63008;53.112;8.896;2023-06-26T06:34:08;14.40;;;7.20;;
5125;SDS011;63008;53.112;8.896;2023-06-26T06:36:09;9.00;;;7.10;;
5125;SDS011;63008;53.112;8.896;2023-06-26T06:38:11;9.13;;;7.33;;
5125;SDS011;63008;53.112;8.896;2023-06-26T06:40:12;9.03;;;7.73;;
5125;SDS011;63008;53.112;8.896;2023-06-26T06:42:14;8.00;;;7.10;;
5125;SDS011;63008;53.112;8.896;2023-06-26T06:44:15;7.33;;;6.63;;
5125;SDS011;63008;53.112;8.896;2023-06-26T06:46:15;8.00;;;7.20;;
5125;SDS011;63008;53.112;8.896;2023-06-26T06:48:16;7.97;;;7.17;;
5125;SDS011;63008;53.112;8.896;2023-06-26T06:50:17;7.13;;;6.40;;
5125;SDS011;63008;53.112;8.896;2023-06-26T06:52:18;8.20;;;7.40;;
5125;SDS011;63008;53.112;8.896;2023-06-26T06:54:19;8.47;;;7.57;;
5125;SDS011;63008;53.112;8.896;2023-06-26T06:56:23;8.60;;;7.20;;
5125;SDS011;63008;53.112;8.896;2023-06-26T06:58:24;8.13;;;7.33;;
5125;SDS011;63008;53.112;8.896;2023-06-26T07:00:25;8.40;;;7.50;;
5125;SDS011;63008;53.112;8.896;2023-06-26T07:02:27;12.73;;;7.73;;
5125;SDS011;63008;53.112;8.896;2023-06-26T07:04:28;10.73;;;7.43;;
5125;SDS011;63008;53.112;8.896;2023-06-26T07:06:29;8.57;;;7.50;;
5125;SDS011;63008;53.112;8.896;2023-06-26T07:08:30;16.43;;;8.50;;
5125;SDS011;63008;53.112;8.896;2023-06-26T07:10:31;9.00;;;8.10;;
5125;SDS011;63008;53.112;8.896;2023-06-26T07:12:32;10.33;;;7.77;;
5125;SDS011;63008;53.112;8.896;2023-06-26T07:14:34;8.83;;;7.77;;
5125;SDS011;63008;53.112;8.896;2023-06-26T07:16:34;8.60;;;7.80;;
5125;SDS011;63008;53.112;8.896;2023-06-26T07:18:35;10.17;;;8.83;;
5125;SDS011;63008;53.112;8.896;2023-06-26T07:20:37;10.93;;;8.97;;
5125;SDS011;63008;53.112;8.896;2023-06-26T07:22:38;13.50;;;9.27;;
5125;SDS011;63008;53.112;8.896;2023-06-26T07:24:39;11.03;;;9.43;;
5125;SDS011;63008;53.112;8.896;2023-06-26T07:26:40;12.47;;;9.57;;
5125;SDS011;63008;53.112;8.896;2023-06-26T07:28:41;12.57;;;10.30;;
5125;SDS011;63008;53.112;8.896;2023-06-26T07:30:42;10.90;;;9.60;;
5125;SDS011;63008;53.112;8.896;2023-06-26T07:32:44;12.03;;;10.30;;
5125;SDS011;63008;53.112;8.896;2023-06-26T07:34:45;11.57;;;10.30;;
5125;SDS011;63008;53.112;8.896;2023-06-26T07:36:46;12.53;;;10.60;;
5125;SDS011;63008;53.112;8.896;2023-06-26T07:38:47;10.40;;;9.50;;
5125;SDS011;63008;53.112;8.896;2023-06-26T07:40:48;10.73;;;9.50;;
5125;SDS011;63008;53.112;8.896;2023-06-26T07:42:49;15.90;;;10.00;;
5125;SDS011;63008;53.112;8.896;2023-06-26T07:44:50;10.70;;;9.00;;
5125;SDS011;63008;53.112;8.896;2023-06-26T07:46:51;12.00;;;8.97;;
5125;SDS011;63008;53.112;8.896;2023-06-26T07:48:52;14.90;;;9.10;;
5125;SDS011;63008;53.112;8.896;2023-06-26T07:50:54;13.10;;;9.33;;
5125;SDS011;63008;53.112;8.896;2023-06-26T07:52:54;18.43;;;9.03;;
5125;SDS011;63008;53.112;8.896;2023-06-26T07:54:56;12.13;;;8.50;;
5125;SDS011;63008;53.112;8.896;2023-06-26T07:56:59;10.10;;;8.40;;
5125;SDS011;63008;53.112;8.896;2023-06-26T07:59:01;9.97;;;7.63;;
5125;SDS011;63008;53.112;8.896;2023-06-26T08:01:04;9.23;;;8.00;;
5125;SDS011;63008;53.112;8.896;2023-06-26T08:03:05;8.63;;;7.73;;
5125;SDS011;63008;53.112;8.896;2023-06-26T08:05:06;11.57;;;7.93;;
5125;SDS011;63008;53.112;8.896;2023-06-26T08:07:08;24.77;;;9.37;;
5125;SDS011;63008;53.112;8.896;2023-06-26T08:09:09;9.07;;;8.27;;
5125;SDS011;63008;53.112;8.896;2023-06-26T08:11:10;15.43;;;9.40;;
5125;SDS011;63008;53.112;8.896;2023-06-26T08:13:11;25.50;;;10.20;;
5125;SDS011;63008;53.112;8.896;2023-06-26T08:15:12;14.83;;;11.00;;
5125;SDS011;63008;53.112;8.896;2023-06-26T08:17:13;16.00;;;10.73;;
5125;SDS011;63008;53.112;8.896;2023-06-26T08:19:14;19.43;;;11.37;;
5125;SDS011;63008;53.112;8.896;2023-06-26T08:21:16;17.87;;;12.03;;
5125;SDS011;63008;53.112;8.896;2023-06-26T08:23:17;14.00;;;11.00;;
5125;SDS011;63008;53.112;8.896;2023-06-26T08:25:18;13.80;;;11.47;;
5125;SDS011;63008;53.112;8.896;2023-06-26T08:27:19;34.97;;;11.80;;
5125;SDS011;63008;53.112;8.896;2023-06-26T08:29:20;16.67;;;9.83;;
5125;SDS011;63008;53.112;8.896;2023-06-26T08:31:21;21.00;;;10.00;;
5125;SDS011;63008;53.112;8.896;2023-06-26T08:33:22;10.93;;;9.33;;
5125;SDS011;63008;53.112;8.896;2023-06-26T08:35:23;11.20;;;8.50;;
5125;SDS011;63008;53.112;8.896;2023-06-26T08:37:24;13.10;;;8.37;;
5125;SDS011;63008;53.112;8.896;2023-06-26T08:39:25;8.83;;;7.93;;
5125;SDS011;63008;53.112;8.896;2023-06-26T08:41:25;9.80;;;7.87;;
5125;SDS011;63008;53.112;8.896;2023-06-26T08:43:26;15.57;;;9.27;;
5125;SDS011;63008;53.112;8.896;2023-06-26T08:45:28;12.30;;;7.50;;
5125;SDS011;63008;53.112;8.896;2023-06-26T08:47:29;15.70;;;8.60;;
5125;SDS011;63008;53.112;8.896;2023-06-26T08:49:37;16.30;;;8.83;;
5125;SDS011;63008;53.112;8.896;2023-06-26T08:51:49;12.10;;;9.23;;
5125;SDS011;63008;53.112;8.896;2023-06-26T08:53:57;12.90;;;7.00;;
5125;SDS011;63008;53.112;8.896;2023-06-26T08:55:59;25.23;;;8.10;;
5125;SDS011;63008;53.112;8.896;2023-06-26T08:58:01;19.83;;;8.87;;
5125;SDS011;63008;53.112;8.896;2023-06-26T09:00:02;15.80;;;8.83;;
5125;SDS011;63008;53.112;8.896;2023-06-26T09:02:04;10.73;;;8.87;;
5125;SDS011;63008;53.112;8.896;2023-06-26T09:04:06;10.23;;;9.07;;
5125;SDS011;63008;53.112;8.896;2023-06-26T09:06:07;27.20;;;9.37;;
5125;SDS011;63008;53.112;8.896;2023-06-26T09:08:08;16.77;;;11.60;;
5125;SDS011;63008;53.112;8.896;2023-06-26T09:10:09;18.47;;;11.87;;
5125;SDS011;63008;53.112;8.896;2023-06-26T09:12:10;20.43;;;13.57;;
5125;SDS011;63008;53.112;8.896;2023-06-26T09:14:11;17.70;;;13.13;;
5125;SDS011;63008;53.112;8.896;2023-06-26T09:16:14;23.60;;;14.27;;
5125;SDS011;63008;53.112;8.896;2023-06-26T09:18:16;24.30;;;15.70;;
5125;SDS011;63008;53.112;8.896;2023-06-26T09:20:20;19.77;;;15.80;;
5125;SDS011;63008;53.112;8.896;2023-06-26T09:22:20;27.50;;;18.10;;
5125;SDS011;63008;53.112;8.896;2023-06-26T09:24:23;21.83;;;16.30;;
5125;SDS011;63008;53.112;8.896;2023-06-26T09:26:25;20.73;;;16.63;;
5125;SDS011;63008;53.112;8.896;2023-06-26T09:28:27;25.20;;;16.60;;
5125;SDS011;63008;53.112;8.896;2023-06-26T09:30:28;26.90;;;17.07;;
5125;SDS011;63008;53.112;8.896;2023-06-26T09:32:29;20.20;;;14.20;;
5125;SDS011;63008;53.112;8.896;2023-06-26T09:34:33;18.60;;;13.80;;
5125;SDS011;63008;53.112;8.896;2023-06-26T09:36:36;21.03;;;14.73;;
5125;SDS011;63008;53.112;8.896;2023-06-26T09:38:37;23.47;;;12.73;;
5125;SDS011;63008;53.112;8.896;2023-06-26T09:40:39;19.13;;;11.93;;
5125;SDS011;63008;53.112;8.896;2023-06-26T09:42:40;13.07;;;9.77;;
5125;SDS011;63008;53.112;8.896;2023-06-26T09:44:45;24.07;;;11.70;;
5125;SDS011;63008;53.112;8.896;2023-06-26T09:46:46;10.00;;;6.63;;
5125;SDS011;63008;53.112;8.896;2023-06-26T09:48:47;17.23;;;7.60;;
5125;SDS011;63008;53.112;8.896;2023-06-26T09:50:48;14.10;;;7.43;;
5125;SDS011;63008;53.112;8.896;2023-06-26T09:52:50;11.07;;;6.40;;
5125;SDS011;63008;53.112;8.896;2023-06-26T09:54:52;13.00;;;6.40;;
5125;SDS011;63008;53.112;8.896;2023-06-26T09:57:15;13.40;;;6.73;;
5125;SDS011;63008;53.112;8.896;2023-06-26T09:59:17;11.20;;;5.87;;
5125;SDS011;63008;53.112;8.896;2023-06-26T10:01:18;11.03;;;5.50;;
5125;SDS011;63008;53.112;8.896;2023-06-26T10:03:20;13.77;;;5.10;;
5125;SDS011;63008;53.112;8.896;2023-06-26T10:05:20;8.23;;;4.33;;
5125;SDS011;63008;53.112;8.896;2023-06-26T10:07:21;10.33;;;4.37;;
5125;SDS011;63008;53.112;8.896;2023-06-26T10:09:23;9.33;;;3.63;;
5125;SDS011;63008;53.112;8.896;2023-06-26T10:11:25;7.00;;;3.80;;
5125;SDS011;63008;53.112;8.896;2023-06-26T10:13:38;11.63;;;4.37;;
5125;SDS011;63008;53.112;8.896;2023-06-26T10:15:40;6.93;;;2.77;;
5125;SDS011;63008;53.112;8.896;2023-06-26T10:17:44;4.73;;;2.13;;
5125;SDS011;63008;53.112;8.896;2023-06-26T10:19:48;4.03;;;2.90;;
5125;SDS011;63008;53.112;8.896;2023-06-26T10:21:52;6.43;;;2.30;;
5125;SDS011;63008;53.112;8.896;2023-06-26T10:23:54;9.20;;;3.70;;
5125;SDS011;63008;53.112;8.896;2023-06-26T10:25:58;4.80;;;1.93;;
5125;SDS011;63008;53.112;8.896;2023-06-26T10:28:01;4.27;;;2.33;;
5125;SDS011;63008;53.112;8.896;2023-06-26T10:30:04;4.00;;;2.17;;
5125;SDS011;63008;53.112;8.896;2023-06-26T10:32:10;6.13;;;2.63;;
5125;SDS011;63008;53.112;8.896;2023-06-26T10:34:13;3.53;;;1.87;;
5125;SDS011;63008;53.112;8.896;2023-06-26T10:36:15;6.27;;;2.63;;
5125;SDS011;63008;53.112;8.896;2023-06-26T10:38:19;2.63;;;1.70;;
5125;SDS011;63008;53.112;8.896;2023-06-26T10:40:22;7.20;;;2.13;;
5125;SDS011;63008;53.112;8.896;2023-06-26T10:42:35;6.30;;;2.40;;
5125;SDS011;63008;53.112;8.896;2023-06-26T10:44:43;3.33;;;2.10;;
5125;SDS011;63008;53.112;8.896;2023-06-26T10:48:56;8.07;;;2.30;;
5125;SDS011;63008;53.112;8.896;2023-06-26T10:51:05;11.87;;;2.30;;
5125;SDS011;63008;53.112;8.896;2023-06-26T10:53:15;11.63;;;2.43;;
5125;SDS011;63008;53.112;8.896;2023-06-26T10:55:25;6.53;;;2.37;;
5125;SDS011;63008;53.112;8.896;2023-06-26T10:57:28;5.10;;;1.97;;
5125;SDS011;63008;53.112;8.896;2023-06-26T10:59:30;5.03;;;1.90;;
5125;SDS011;63008;53.112;8.896;2023-06-26T11:01:32;3.60;;;1.53;;
5125;SDS011;63008;53.112;8.896;2023-06-26T11:03:41;8.77;;;1.80;;
5125;SDS011;63008;53.112;8.896;2023-06-26T11:05:44;6.50;;;1.63;;
5125;SDS011;63008;53.112;8.896;2023-06-26T11:10:19;5.10;;;1.60;;
5125;SDS011;63008;53.112;8.896;2023-06-26T11:12:39;6.10;;;1.73;;
5125;SDS011;63008;53.112;8.896;2023-06-26T11:14:44;3.63;;;1.73;;
5125;SDS011;63008;53.112;8.896;2023-06-26T11:16:46;5.70;;;2.10;;
5125;SDS011;63008;53.112;8.896;2023-06-26T11:18:47;6.63;;;1.83;;
5125;SDS011;63008;53.112;8.896;2023-06-26T11:20:50;5.80;;;1.83;;
5125;SDS011;63008;53.112;8.896;2023-06-26T11:22:52;8.10;;;1.80;;
5125;SDS011;63008;53.112;8.896;2023-06-26T11:24:53;4.13;;;1.67;;
5125;SDS011;63008;53.112;8.896;2023-06-26T11:26:54;7.33;;;2.03;;
5125;SDS011;63008;53.112;8.896;2023-06-26T11:29:00;4.27;;;1.93;;
5125;SDS011;63008;53.112;8.896;2023-06-26T11:31:01;3.53;;;1.63;;
5125;SDS011;63008;53.112;8.896;2023-06-26T11:33:06;3.27;;;1.50;;
5125;SDS011;63008;53.112;8.896;2023-06-26T11:35:08;3.77;;;1.77;;
5125;SDS011;63008;53.112;8.896;2023-06-26T11:37:10;2.33;;;1.67;;
5125;SDS011;63008;53.112;8.896;2023-06-26T11:39:12;3.27;;;1.73;;
5125;SDS011;63008;53.112;8.896;2023-06-26T11:41:16;7.90;;;1.77;;
5125;SDS011;63008;53.112;8.896;2023-06-26T11:43:18;3.07;;;2.00;;
5125;SDS011;63008;53.112;8.896;2023-06-26T11:45:20;4.40;;;2.00;;
5125;SDS011;63008;53.112;8.896;2023-06-26T11:47:21;5.10;;;1.77;;
5125;SDS011;63008;53.112;8.896;2023-06-26T11:49:23;2.50;;;1.50;;
5125;SDS011;63008;53.112;8.896;2023-06-26T11:51:29;5.23;;;2.20;;
5125;SDS011;63008;53.112;8.896;2023-06-26T11:53:30;3.80;;;1.80;;
5125;SDS011;63008;53.112;8.896;2023-06-26T11:55:39;1.90;;;1.40;;
5125;SDS011;63008;53.112;8.896;2023-06-26T11:57:41;3.53;;;2.00;;
5125;SDS011;63008;53.112;8.896;2023-06-26T11:59:42;5.17;;;1.70;;
5125;SDS011;63008;53.112;8.896;2023-06-26T12:01:44;4.50;;;1.87;;
5125;SDS011;63008;53.112;8.896;2023-06-26T12:03:45;3.77;;;1.73;;
5125;SDS011;63008;53.112;8.896;2023-06-26T12:05:46;2.40;;;1.77;;
5125;SDS011;63008;53.112;8.896;2023-06-26T12:07:47;5.00;;;2.07;;
5125;SDS011;63008;53.112;8.896;2023-06-26T12:09:50;2.90;;;1.90;;
5125;SDS011;63008;53.112;8.896;2023-06-26T12:11:52;4.30;;;1.73;;
5125;SDS011;63008;53.112;8.896;2023-06-26T12:13:55;4.90;;;1.60;;
5125;SDS011;63008;53.112;8.896;2023-06-26T12:15:57;7.30;;;1.50;;
5125;SDS011;63008;53.112;8.896;2023-06-26T12:17:58;2.00;;;1.80;;
5125;SDS011;63008;53.112;8.896;2023-06-26T12:19:59;2.80;;;1.60;;
5125;SDS011;63008;53.112;8.896;2023-06-26T12:22:05;5.70;;;1.87;;
5125;SDS011;63008;53.112;8.896;2023-06-26T12:24:13;4.03;;;1.90;;
5125;SDS011;63008;53.112;8.896;2023-06-26T12:26:17;3.50;;;2.13;;
5125;SDS011;63008;53.112;8.896;2023-06-26T12:28:21;3.37;;;1.47;;